sensor_id;sensor_type;location;lat;lon;timestamp;pressure;altitude;pressure_sealevel;temperature;humidity
50394;BME280;36308;46.312;25.288;2023-08-06T00:00:20;95014.00;;;21.86;58.32
50394;BME280;36308;46.312;25.288;2023-08-06T00:02:46;95009.66;;;21.85;58.39
50394;BME280;36308;46.312;25.288;2023-08-06T00:05:12;94999.88;;;21.84;58.65
50394;BME280;36308;46.312;25.288;2023-08-06T00:07:37;95001.03;;;21.83;58.54
50394;BME280;36308;46.312;25.288;2023-08-06T00:10:03;95001.03;;;21.83;58.77
50394;BME280;36308;46.312;25.288;2023-08-06T00:12:29;95009.22;;;21.83;58.69
50394;BME280;36308;46.312;25.288;2023-08-06T00:14:54;95013.56;;;21.84;58.71
50394;BME280;36308;46.312;25.288;2023-08-06T00:17:19;94995.56;;;21.83;58.98
50394;BME280;36308;46.312;25.288;2023-08-06T00:19:45;94999.09;;;21.83;58.93
50394;BME280;36308;46.312;25.288;2023-08-06T00:22:11;94990.06;;;21.83;59.21
50394;BME280;36308;46.312;25.288;2023-08-06T00:24:36;94991.69;;;21.84;59.13
50394;BME280;36308;46.312;25.288;2023-08-06T00:27:02;94996.38;;;21.83;59.03
50394;BME280;36308;46.312;25.288;2023-08-06T00:29:28;94990.06;;;21.83;59.37
50394;BME280;36308;46.312;25.288;2023-08-06T00:31:53;94988.50;;;21.82;59.49
50394;BME280;36308;46.312;25.288;2023-08-06T00:34:19;94990.06;;;21.83;59.45
50394;BME280;36308;46.312;25.288;2023-08-06T00:36:44;94965.00;;;21.80;59.50
50394;BME280;36308;46.312;25.288;2023-08-06T00:39:11;94962.66;;;21.79;59.50
50394;BME280;36308;46.312;25.288;2023-08-06T00:41:36;94958.66;;;21.76;59.55
50394;BME280;36308;46.312;25.288;2023-08-06T00:44:02;94957.53;;;21.77;59.51
50394;BME280;36308;46.312;25.288;2023-08-06T00:46:28;94947.72;;;21.76;59.63
50394;BME280;36308;46.312;25.288;2023-08-06T00:48:54;94950.03;;;21.74;59.86
50394;BME280;36308;46.312;25.288;2023-08-06T00:51:20;94942.19;;;21.73;59.72
50394;BME280;36308;46.312;25.288;2023-08-06T00:53:49;94939.81;;;21.71;59.88
50394;BME280;36308;46.312;25.288;2023-08-06T00:56:15;94929.56;;;21.68;60.04
50394;BME280;36308;46.312;25.288;2023-08-06T00:58:41;94926.38;;;21.66;60.05
50394;BME280;36308;46.312;25.288;2023-08-06T01:01:06;94925.59;;;21.66;60.10
50394;BME280;36308;46.312;25.288;2023-08-06T01:03:32;94914.56;;;21.62;60.11
50394;BME280;36308;46.312;25.288;2023-08-06T01:05:58;94922.34;;;21.60;60.16
50394;BME280;36308;46.312;25.288;2023-08-06T01:11:40;94908.16;;;21.54;60.39
50394;BME280;36308;46.312;25.288;2023-08-06T01:14:20;94911.25;;;21.53;60.48
50394;BME280;36308;46.312;25.288;2023-08-06T01:16:50;94904.13;;;21.48;60.44
50394;BME280;36308;46.312;25.288;2023-08-06T01:19:17;94893.53;;;21.47;60.53
50394;BME280;36308;46.312;25.288;2023-08-06T01:21:42;94875.19;;;21.31;60.52
50394;BME280;36308;46.312;25.288;2023-08-06T01:24:08;94887.50;;;21.41;60.53
50394;BME280;36308;46.312;25.288;2023-08-06T01:26:42;94882.41;;;21.39;60.78
50394;BME280;36308;46.312;25.288;2023-08-06T01:29:28;94873.69;;;21.34;60.92
50394;BME280;36308;46.312;25.288;2023-08-06T01:31:57;94874.03;;;21.32;60.83
50394;BME280;36308;46.312;25.288;2023-08-06T01:34:25;94875.88;;;21.28;61.00
50394;BME280;36308;46.312;25.288;2023-08-06T01:36:53;94869.97;;;21.26;60.97
50394;BME280;36308;46.312;25.288;2023-08-06T01:39:18;94866.78;;;21.24;61.10
50394;BME280;36308;46.312;25.288;2023-08-06T01:41:50;94862.06;;;21.21;61.04
50394;BME280;36308;46.312;25.288;2023-08-06T01:44:15;94860.44;;;21.20;61.38
50394;BME280;36308;46.312;25.288;2023-08-06T01:46:41;94857.63;;;21.16;61.33
50394;BME280;36308;46.312;25.288;2023-08-06T01:49:07;94850.50;;;21.12;61.19
50394;BME280;36308;46.312;25.288;2023-08-06T01:51:32;94828.03;;;21.03;61.32
50394;BME280;36308;46.312;25.288;2023-08-06T01:53:58;94822.13;;;21.01;61.34
50394;BME280;36308;46.312;25.288;2023-08-06T01:56:24;94817.09;;;21.03;61.43
50394;BME280;36308;46.312;25.288;2023-08-06T01:58:49;94820.19;;;21.01;61.27
50394;BME280;36308;46.312;25.288;2023-08-06T02:01:14;94825.56;;;20.97;61.31
50394;BME280;36308;46.312;25.288;2023-08-06T02:03:40;94812.19;;;20.92;61.37
50394;BME280;36308;46.312;25.288;2023-08-06T02:06:06;94807.41;;;20.89;61.51
50394;BME280;36308;46.312;25.288;2023-08-06T02:08:31;94808.13;;;20.86;61.31
50394;BME280;36308;46.312;25.288;2023-08-06T02:10:56;94792.44;;;20.83;61.49
50394;BME280;36308;46.312;25.288;2023-08-06T02:13:23;94793.94;;;20.81;61.43
50394;BME280;36308;46.312;25.288;2023-08-06T02:15:49;94797.00;;;20.79;61.76
50394;BME280;36308;46.312;25.288;2023-08-06T02:18:15;94795.34;;;20.74;61.73
50394;BME280;36308;46.312;25.288;2023-08-06T02:20:42;94800.03;;;20.74;61.81
50394;BME280;36308;46.312;25.288;2023-08-06T02:23:08;94793.69;;;20.70;62.09
50394;BME280;36308;46.312;25.288;2023-08-06T02:25:34;94798.34;;;20.69;62.00
50394;BME280;36308;46.312;25.288;2023-08-06T02:28:00;94790.06;;;20.66;61.84
50394;BME280;36308;46.312;25.288;2023-08-06T02:30:26;94796.31;;;20.66;61.89
50394;BME280;36308;46.312;25.288;2023-08-06T02:32:51;94795.44;;;20.62;61.88
50394;BME280;36308;46.312;25.288;2023-08-06T02:35:17;94789.53;;;20.60;62.27
50394;BME280;36308;46.312;25.288;2023-08-06T02:37:42;94795.78;;;20.61;62.15
50394;BME280;36308;46.312;25.288;2023-08-06T02:40:08;94789.41;;;20.56;61.48
50394;BME280;36308;46.312;25.288;2023-08-06T02:42:34;94795.59;;;20.53;60.81
50394;BME280;36308;46.312;25.288;2023-08-06T02:44:59;94797.88;;;20.51;59.81
50394;BME280;36308;46.312;25.288;2023-08-06T02:47:25;94786.06;;;20.47;59.37
50394;BME280;36308;46.312;25.288;2023-08-06T02:49:50;94793.47;;;20.47;59.43
50394;BME280;36308;46.312;25.288;2023-08-06T02:52:16;94786.78;;;20.44;59.72
50394;BME280;36308;46.312;25.288;2023-08-06T02:54:42;94793.81;;;20.45;60.17
50394;BME280;36308;46.312;25.288;2023-08-06T02:57:07;94793.81;;;20.45;60.68
50394;BME280;36308;46.312;25.288;2023-08-06T02:59:33;94796.09;;;20.43;60.87
50394;BME280;36308;46.312;25.288;2023-08-06T03:01:59;94796.09;;;20.43;61.00
50394;BME280;36308;46.312;25.288;2023-08-06T03:04:24;94795.31;;;20.43;61.29
50394;BME280;36308;46.312;25.288;2023-08-06T03:06:50;94797.50;;;20.37;61.51
50394;BME280;36308;46.312;25.288;2023-08-06T03:09:19;94813.88;;;20.37;61.84
50394;BME280;36308;46.312;25.288;2023-08-06T03:11:45;94791.88;;;20.30;62.15
50394;BME280;36308;46.312;25.288;2023-08-06T03:14:10;94801.28;;;20.32;62.18
50394;BME280;36308;46.312;25.288;2023-08-06T03:16:36;94796.44;;;20.26;62.42
50394;BME280;36308;46.312;25.288;2023-08-06T03:19:01;94798.91;;;20.31;62.35
50394;BME280;36308;46.312;25.288;2023-08-06T03:21:27;94802.06;;;20.33;62.68
50394;BME280;36308;46.312;25.288;2023-08-06T03:23:52;94801.28;;;20.32;62.63
50394;BME280;36308;46.312;25.288;2023-08-06T03:26:18;94802.78;;;20.30;62.67
50394;BME280;36308;46.312;25.288;2023-08-06T03:28:43;94794.16;;;20.28;62.54
50394;BME280;36308;46.312;25.288;2023-08-06T03:31:09;94796.88;;;20.28;62.58
50394;BME280;36308;46.312;25.288;2023-08-06T03:33:35;94783.75;;;20.17;62.85
50394;BME280;36308;46.312;25.288;2023-08-06T03:36:00;94791.66;;;20.23;62.81
50394;BME280;36308;46.312;25.288;2023-08-06T03:38:26;94797.56;;;20.25;62.80
50394;BME280;36308;46.312;25.288;2023-08-06T03:40:51;94794.06;;;20.24;62.59
50394;BME280;36308;46.312;25.288;2023-08-06T03:43:17;94802.56;;;20.23;62.82
50394;BME280;36308;46.312;25.288;2023-08-06T03:45:43;94793.94;;;20.21;62.82
50394;BME280;36308;46.312;25.288;2023-08-06T03:48:09;94802.13;;;20.21;62.99
50394;BME280;36308;46.312;25.288;2023-08-06T03:50:34;94796.22;;;20.18;62.98
50394;BME280;36308;46.312;25.288;2023-08-06T03:53:00;94792.72;;;20.18;62.98
50394;BME280;36308;46.312;25.288;2023-08-06T03:55:26;94800.13;;;20.17;62.96
50394;BME280;36308;46.312;25.288;2023-08-06T03:57:51;94795.09;;;20.19;63.11
50394;BME280;36308;46.312;25.288;2023-08-06T04:00:17;94803.28;;;20.19;63.05
50394;BME280;36308;46.312;25.288;2023-08-06T04:02:42;94795.09;;;20.19;63.13
50394;BME280;36308;46.312;25.288;2023-08-06T04:05:08;94804.06;;;20.20;63.26
50394;BME280;36308;46.312;25.288;2023-08-06T04:07:34;94796.22;;;20.18;63.48
50394;BME280;36308;46.312;25.288;2023-08-06T04:10:01;94801.00;;;20.22;63.56
50394;BME280;36308;46.312;25.288;2023-08-06T04:12:27;94793.94;;;20.21;63.71
50394;BME280;36308;46.312;25.288;2023-08-06T04:14:53;94792.38;;;20.19;63.72
50394;BME280;36308;46.312;25.288;2023-08-06T04:17:20;94793.25;;;20.24;63.65
50394;BME280;36308;46.312;25.288;2023-08-06T04:19:55;94793.72;;;20.26;63.99
50394;BME280;36308;46.312;25.288;2023-08-06T04:22:23;94782.78;;;20.26;64.22
50394;BME280;36308;46.312;25.288;2023-08-06T04:24:49;94772.31;;;20.28;64.05
50394;BME280;36308;46.312;25.288;2023-08-06T04:27:15;94780.50;;;20.28;63.92
50394;BME280;36308;46.312;25.288;2023-08-06T04:29:41;94779.69;;;20.27;64.17
50394;BME280;36308;46.312;25.288;2023-08-06T04:32:08;94772.38;;;20.31;64.12
50394;BME280;36308;46.312;25.288;2023-08-06T04:34:34;94769.31;;;20.33;63.84
50394;BME280;36308;46.312;25.288;2023-08-06T04:37:01;94781.47;;;20.35;64.33
50394;BME280;36308;46.312;25.288;2023-08-06T04:39:27;94772.16;;;20.36;64.45
50394;BME280;36308;46.312;25.288;2023-08-06T04:41:52;94773.81;;;20.41;63.54
50394;BME280;36308;46.312;25.288;2023-08-06T04:44:18;94771.53;;;20.43;63.17
50394;BME280;36308;46.312;25.288;2023-08-06T04:46:43;94763.78;;;20.45;63.09
50394;BME280;36308;46.312;25.288;2023-08-06T04:49:09;94767.28;;;20.46;62.85
50394;BME280;36308;46.312;25.288;2023-08-06T04:51:35;94759.66;;;20.51;61.61
50394;BME280;36308;46.312;25.288;2023-08-06T04:54:01;94751.19;;;20.56;61.59
50394;BME280;36308;46.312;25.288;2023-08-06T04:56:26;94741.53;;;20.59;61.65
50394;BME280;36308;46.312;25.288;2023-08-06T04:58:52;94750.69;;;20.67;62.00
50394;BME280;36308;46.312;25.288;2023-08-06T05:01:18;94755.09;;;20.71;61.83
50394;BME280;36308;46.312;25.288;2023-08-06T05:03:44;94765.41;;;20.78;61.89
50394;BME280;36308;46.312;25.288;2023-08-06T05:06:09;94757.34;;;20.85;61.78
50394;BME280;36308;46.312;25.288;2023-08-06T05:08:35;94765.38;;;20.94;61.94
50394;BME280;36308;46.312;25.288;2023-08-06T05:11:01;94757.78;;;21.03;61.48
50394;BME280;36308;46.312;25.288;2023-08-06T05:13:27;94759.63;;;21.15;60.95
50394;BME280;36308;46.312;25.288;2023-08-06T05:15:55;94761.78;;;21.25;60.75
50394;BME280;36308;46.312;25.288;2023-08-06T05:18:21;94760.81;;;21.33;60.45
50394;BME280;36308;46.312;25.288;2023-08-06T05:20:47;94759.47;;;21.43;59.55
50394;BME280;36308;46.312;25.288;2023-08-06T05:23:13;94759.25;;;21.52;59.53
50394;BME280;36308;46.312;25.288;2023-08-06T05:25:38;94759.53;;;21.66;59.13
50394;BME280;36308;46.312;25.288;2023-08-06T05:28:04;94749.63;;;21.77;59.11
50394;BME280;36308;46.312;25.288;2023-08-06T05:30:32;94749.81;;;21.88;58.33
50394;BME280;36308;46.312;25.288;2023-08-06T05:32:58;94738.56;;;21.93;58.14
50394;BME280;36308;46.312;25.288;2023-08-06T05:35:23;94751.50;;;22.16;58.14
50394;BME280;36308;46.312;25.288;2023-08-06T05:37:52;94744.31;;;22.27;58.09
50394;BME280;36308;46.312;25.288;2023-08-06T05:40:18;94745.78;;;22.44;57.67
50394;BME280;36308;46.312;25.288;2023-08-06T05:42:43;94750.78;;;22.62;56.61
50394;BME280;36308;46.312;25.288;2023-08-06T05:45:09;94753.75;;;22.76;56.28
50394;BME280;36308;46.312;25.288;2023-08-06T05:47:35;94768.09;;;22.92;56.01
50394;BME280;36308;46.312;25.288;2023-08-06T05:50:01;94760.13;;;23.07;55.63
50394;BME280;36308;46.312;25.288;2023-08-06T05:52:26;94757.16;;;23.19;55.26
50394;BME280;36308;46.312;25.288;2023-08-06T05:54:51;94752.31;;;23.35;54.64
50394;BME280;36308;46.312;25.288;2023-08-06T05:57:17;94743.50;;;23.49;54.44
50394;BME280;36308;46.312;25.288;2023-08-06T05:59:43;94751.16;;;23.67;53.82
50394;BME280;36308;46.312;25.288;2023-08-06T06:02:08;94738.00;;;23.79;52.89
50394;BME280;36308;46.312;25.288;2023-08-06T06:04:34;94740.19;;;23.97;52.61
50394;BME280;36308;46.312;25.288;2023-08-06T06:06:59;94739.47;;;24.07;52.74
50394;BME280;36308;46.312;25.288;2023-08-06T06:09:25;94741.19;;;24.19;52.62
50394;BME280;36308;46.312;25.288;2023-08-06T06:11:50;94724.81;;;24.30;52.21
50394;BME280;36308;46.312;25.288;2023-08-06T06:14:17;94726.13;;;24.43;51.40
50394;BME280;36308;46.312;25.288;2023-08-06T06:16:43;94723.13;;;24.55;50.81
50394;BME280;36308;46.312;25.288;2023-08-06T06:19:09;94703.88;;;24.55;50.75
50394;BME280;36308;46.312;25.288;2023-08-06T06:21:36;94717.38;;;24.75;50.18
50394;BME280;36308;46.312;25.288;2023-08-06T06:24:03;94702.88;;;24.78;50.16
50394;BME280;36308;46.312;25.288;2023-08-06T06:26:29;94703.34;;;24.87;50.10
50394;BME280;36308;46.312;25.288;2023-08-06T06:28:55;94692.00;;;24.92;49.93
50394;BME280;36308;46.312;25.288;2023-08-06T06:31:20;94698.34;;;25.04;50.00
50394;BME280;36308;46.312;25.288;2023-08-06T06:33:46;94699.59;;;25.13;49.79
50394;BME280;36308;46.312;25.288;2023-08-06T06:36:11;94700.47;;;25.28;49.88
50394;BME280;36308;46.312;25.288;2023-08-06T06:38:37;94719.41;;;25.40;49.23
50394;BME280;36308;46.312;25.288;2023-08-06T06:41:03;94710.81;;;25.53;49.27
50394;BME280;36308;46.312;25.288;2023-08-06T06:43:28;94715.59;;;25.63;48.94
50394;BME280;36308;46.312;25.288;2023-08-06T06:46:00;94723.50;;;25.75;48.73
50394;BME280;36308;46.312;25.288;2023-08-06T06:48:32;94713.69;;;25.85;48.22
50394;BME280;36308;46.312;25.288;2023-08-06T06:50:57;94718.84;;;25.94;48.18
50394;BME280;36308;46.312;25.288;2023-08-06T06:53:23;94725.19;;;26.05;47.28
50394;BME280;36308;46.312;25.288;2023-08-06T06:56:05;94737.00;;;26.16;47.23
50394;BME280;36308;46.312;25.288;2023-08-06T06:58:33;94742.16;;;26.29;46.98
50394;BME280;36308;46.312;25.288;2023-08-06T07:00:59;94720.91;;;26.26;47.07
50394;BME280;36308;46.312;25.288;2023-08-06T07:03:24;94744.94;;;26.43;47.05
50394;BME280;36308;46.312;25.288;2023-08-06T07:05:50;94754.41;;;26.53;46.89
50394;BME280;36308;46.312;25.288;2023-08-06T07:08:16;94751.31;;;26.61;46.41
50394;BME280;36308;46.312;25.288;2023-08-06T07:10:42;94746.59;;;26.58;46.49
50394;BME280;36308;46.312;25.288;2023-08-06T07:13:08;94752.47;;;26.78;46.35
50394;BME280;36308;46.312;25.288;2023-08-06T07:15:34;94744.22;;;26.86;46.23
50394;BME280;36308;46.312;25.288;2023-08-06T07:17:59;94744.22;;;26.96;45.16
50394;BME280;36308;46.312;25.288;2023-08-06T07:20:25;94745.41;;;27.02;45.50
50394;BME280;36308;46.312;25.288;2023-08-06T07:22:51;94741.06;;;27.09;45.29
50394;BME280;36308;46.312;25.288;2023-08-06T07:25:17;94746.56;;;27.16;45.62
50394;BME280;36308;46.312;25.288;2023-08-06T07:27:42;94741.03;;;27.19;45.44
50394;BME280;36308;46.312;25.288;2023-08-06T07:30:08;94736.34;;;27.27;45.78
50394;BME280;36308;46.312;25.288;2023-08-06T07:32:34;94740.66;;;27.32;45.45
50394;BME280;36308;46.312;25.288;2023-08-06T07:35:01;94728.41;;;27.40;45.42
50394;BME280;36308;46.312;25.288;2023-08-06T07:37:28;94730.38;;;27.47;45.48
50394;BME280;36308;46.312;25.288;2023-08-06T07:39:55;94724.44;;;27.52;45.04
50394;BME280;36308;46.312;25.288;2023-08-06T07:42:21;94733.09;;;27.61;45.01
50394;BME280;36308;46.312;25.288;2023-08-06T07:44:51;94742.53;;;27.67;44.51
50394;BME280;36308;46.312;25.288;2023-08-06T07:47:18;94741.31;;;27.75;44.25
50394;BME280;36308;46.312;25.288;2023-08-06T07:49:44;94741.66;;;27.85;44.68
50394;BME280;36308;46.312;25.288;2023-08-06T07:52:09;94744.00;;;27.97;44.26
50394;BME280;36308;46.312;25.288;2023-08-06T07:54:35;94734.94;;;27.96;43.89
50394;BME280;36308;46.312;25.288;2023-08-06T07:57:00;94745.16;;;28.10;43.76
50394;BME280;36308;46.312;25.288;2023-08-06T07:59:26;94745.09;;;28.17;42.81
50394;BME280;36308;46.312;25.288;2023-08-06T08:01:52;94749.03;;;28.24;42.64
50394;BME280;36308;46.312;25.288;2023-08-06T08:04:18;94743.09;;;28.29;42.72
50394;BME280;36308;46.312;25.288;2023-08-06T08:06:43;94739.88;;;28.34;42.42
50394;BME280;36308;46.312;25.288;2023-08-06T08:09:09;94732.75;;;28.40;42.11
50394;BME280;36308;46.312;25.288;2023-08-06T08:11:34;94744.16;;;28.49;41.80
50394;BME280;36308;46.312;25.288;2023-08-06T08:14:00;94751.63;;;28.56;42.11
50394;BME280;36308;46.312;25.288;2023-08-06T08:16:25;94755.53;;;28.62;42.25
50394;BME280;36308;46.312;25.288;2023-08-06T08:18:51;94753.09;;;28.68;42.59
50394;BME280;36308;46.312;25.288;2023-08-06T08:21:16;94749.91;;;28.76;42.70
50394;BME280;36308;46.312;25.288;2023-08-06T08:23:43;94749.06;;;28.83;43.09
50394;BME280;36308;46.312;25.288;2023-08-06T08:26:09;94746.59;;;28.92;43.27
50394;BME280;36308;46.312;25.288;2023-08-06T08:28:34;94755.22;;;29.01;43.74
50394;BME280;36308;46.312;25.288;2023-08-06T08:31:00;94755.16;;;29.12;43.72
50394;BME280;36308;46.312;25.288;2023-08-06T08:33:26;94766.13;;;29.23;44.25
50394;BME280;36308;46.312;25.288;2023-08-06T08:35:51;94777.16;;;29.30;43.96
50394;BME280;36308;46.312;25.288;2023-08-06T08:38:17;94775.13;;;29.34;43.65
50394;BME280;36308;46.312;25.288;2023-08-06T08:40:47;94775.53;;;29.33;43.27
50394;BME280;36308;46.312;25.288;2023-08-06T08:43:17;94778.78;;;29.24;43.20
50394;BME280;36308;46.312;25.288;2023-08-06T08:45:46;94774.91;;;29.18;43.59
50394;BME280;36308;46.312;25.288;2023-08-06T08:48:15;94778.88;;;29.10;43.56
50394;BME280;36308;46.312;25.288;2023-08-06T08:50:44;94779.72;;;29.03;43.34
50394;BME280;36308;46.312;25.288;2023-08-06T08:53:11;94781.38;;;28.93;43.84
50394;BME280;36308;46.312;25.288;2023-08-06T08:55:37;94773.56;;;28.81;44.66
50394;BME280;36308;46.312;25.288;2023-08-06T08:58:03;94770.44;;;28.79;46.11
50394;BME280;36308;46.312;25.288;2023-08-06T09:00:29;94764.91;;;28.79;46.79
50394;BME280;36308;46.312;25.288;2023-08-06T09:02:55;94755.78;;;28.82;47.04
50394;BME280;36308;46.312;25.288;2023-08-06T09:05:23;94759.69;;;28.88;47.20
50394;BME280;36308;46.312;25.288;2023-08-06T09:07:52;94759.63;;;28.95;46.89
50394;BME280;36308;46.312;25.288;2023-08-06T09:10:19;94756.38;;;29.04;46.94
50394;BME280;36308;46.312;25.288;2023-08-06T09:12:51;94751.22;;;29.10;46.86
50394;BME280;36308;46.312;25.288;2023-08-06T09:15:16;94753.59;;;29.11;46.15
50394;BME280;36308;46.312;25.288;2023-08-06T09:17:42;94762.31;;;29.02;46.38
50394;BME280;36308;46.312;25.288;2023-08-06T09:20:14;94761.97;;;28.97;47.01
50394;BME280;36308;46.312;25.288;2023-08-06T09:22:41;94764.78;;;28.93;47.28
50394;BME280;36308;46.312;25.288;2023-08-06T09:25:07;94762.44;;;28.88;46.85
50394;BME280;36308;46.312;25.288;2023-08-06T09:27:38;94762.44;;;28.88;47.20
50394;BME280;36308;46.312;25.288;2023-08-06T09:30:05;94755.72;;;28.89;47.20
50394;BME280;36308;46.312;25.288;2023-08-06T09:32:45;94747.75;;;28.95;47.59
50394;BME280;36308;46.312;25.288;2023-08-06T09:35:15;94744.94;;;29.06;47.37
50394;BME280;36308;46.312;25.288;2023-08-06T09:37:42;94739.34;;;29.13;46.80
50394;BME280;36308;46.312;25.288;2023-08-06T09:40:30;94741.69;;;29.18;46.91
50394;BME280;36308;46.312;25.288;2023-08-06T09:42:57;94747.88;;;29.29;47.16
50394;BME280;36308;46.312;25.288;2023-08-06T09:45:23;94754.84;;;29.45;46.98
50394;BME280;36308;46.312;25.288;2023-08-06T09:47:50;94753.13;;;29.58;46.12
50394;BME280;36308;46.312;25.288;2023-08-06T09:50:19;94746.69;;;29.68;45.72
50394;BME280;36308;46.312;25.288;2023-08-06T09:52:50;94741.84;;;29.79;45.22
50394;BME280;36308;46.312;25.288;2023-08-06T09:55:18;94737.78;;;29.88;44.94
50394;BME280;36308;46.312;25.288;2023-08-06T09:57:43;94733.00;;;29.92;44.62
50394;BME280;36308;46.312;25.288;2023-08-06T10:00:10;94727.75;;;30.01;44.58
50394;BME280;36308;46.312;25.288;2023-08-06T10:02:40;94739.13;;;30.07;44.33
50394;BME280;36308;46.312;25.288;2023-08-06T10:05:08;94728.84;;;30.07;43.56
50394;BME280;36308;46.312;25.288;2023-08-06T10:07:35;94720.91;;;30.09;43.65
50394;BME280;36308;46.312;25.288;2023-08-06T10:10:01;94724.78;;;30.15;43.51
50394;BME280;36308;46.312;25.288;2023-08-06T10:12:30;94721.53;;;30.20;43.00
50394;BME280;36308;46.312;25.288;2023-08-06T10:14:59;94730.22;;;30.22;43.23
50394;BME280;36308;46.312;25.288;2023-08-06T10:17:27;94727.41;;;30.26;43.09
50394;BME280;36308;46.312;25.288;2023-08-06T10:19:53;94726.22;;;30.23;43.57
50394;BME280;36308;46.312;25.288;2023-08-06T10:22:21;94746.97;;;30.15;43.45
50394;BME280;36308;46.312;25.288;2023-08-06T10:24:55;94748.63;;;30.09;44.30
50394;BME280;36308;46.312;25.288;2023-08-06T10:32:50;94741.66;;;29.94;44.42
50394;BME280;36308;46.312;25.288;2023-08-06T10:35:29;94733.00;;;29.92;43.86
50394;BME280;36308;46.312;25.288;2023-08-06T10:38:08;94732.25;;;29.88;44.21
50394;BME280;36308;46.312;25.288;2023-08-06T10:40:35;94727.13;;;29.86;44.72
50394;BME280;36308;46.312;25.288;2023-08-06T10:43:02;94729.47;;;29.88;44.42
50394;BME280;36308;46.312;25.288;2023-08-06T10:45:29;94733.09;;;29.85;44.50
50394;BME280;36308;46.312;25.288;2023-08-06T10:47:56;94744.97;;;29.81;44.72
50394;BME280;36308;46.312;25.288;2023-08-06T10:50:22;94743.47;;;29.77;44.60
50394;BME280;36308;46.312;25.288;2023-08-06T10:52:48;94739.16;;;29.72;44.67
50394;BME280;36308;46.312;25.288;2023-08-06T10:55:25;94727.72;;;29.70;44.32
50394;BME280;36308;46.312;25.288;2023-08-06T10:57:51;94720.63;;;29.66;44.11
50394;BME280;36308;46.312;25.288;2023-08-06T11:00:17;94729.38;;;29.60;44.17
50394;BME280;36308;46.312;25.288;2023-08-06T11:02:43;94741.31;;;29.54;44.33
50394;BME280;36308;46.312;25.288;2023-08-06T11:05:10;94745.34;;;29.46;44.75
50394;BME280;36308;46.312;25.288;2023-08-06T11:07:37;94749.41;;;29.37;44.86
50394;BME280;36308;46.312;25.288;2023-08-06T11:10:07;94754.25;;;29.26;45.29
50394;BME280;36308;46.312;25.288;2023-08-06T11:12:34;94739.34;;;29.09;45.38
50394;BME280;36308;46.312;25.288;2023-08-06T11:15:01;94752.50;;;28.94;45.41
50394;BME280;36308;46.312;25.288;2023-08-06T11:17:32;94780.72;;;28.75;45.67
50394;BME280;36308;46.312;25.288;2023-08-06T11:20:02;94818.38;;;28.47;46.01
50394;BME280;36308;46.312;25.288;2023-08-06T11:22:29;94848.06;;;28.32;46.47
50394;BME280;36308;46.312;25.288;2023-08-06T11:24:54;94870.28;;;28.04;47.32
50394;BME280;36308;46.312;25.288;2023-08-06T11:27:20;94832.44;;;27.68;48.23
50394;BME280;36308;46.312;25.288;2023-08-06T11:29:45;94784.38;;;27.37;48.46
50394;BME280;36308;46.312;25.288;2023-08-06T11:32:11;94769.41;;;27.06;48.94
50394;BME280;36308;46.312;25.288;2023-08-06T11:34:38;94798.19;;;26.79;49.52
50394;BME280;36308;46.312;25.288;2023-08-06T11:37:04;94816.66;;;26.57;50.40
50394;BME280;36308;46.312;25.288;2023-08-06T11:39:34;94815.38;;;26.37;50.51
50394;BME280;36308;46.312;25.288;2023-08-06T11:42:00;94797.63;;;26.20;51.42
50394;BME280;36308;46.312;25.288;2023-08-06T11:44:30;94795.28;;;26.15;52.36
50394;BME280;36308;46.312;25.288;2023-08-06T11:46:59;94802.72;;;26.07;53.09
50394;BME280;36308;46.312;25.288;2023-08-06T11:49:57;94807.00;;;26.01;53.58
50394;BME280;36308;46.312;25.288;2023-08-06T11:52:24;94811.31;;;25.95;53.51
50394;BME280;36308;46.312;25.288;2023-08-06T11:55:09;94787.63;;;25.87;53.85
50394;BME280;36308;46.312;25.288;2023-08-06T11:57:40;94774.63;;;25.84;54.48
50394;BME280;36308;46.312;25.288;2023-08-06T12:00:13;94757.34;;;25.79;55.35
50394;BME280;36308;46.312;25.288;2023-08-06T12:02:43;94776.19;;;25.74;55.18
50394;BME280;36308;46.312;25.288;2023-08-06T12:05:16;94798.56;;;25.69;55.49
50394;BME280;36308;46.312;25.288;2023-08-06T12:07:45;94804.41;;;25.60;55.40
50394;BME280;36308;46.312;25.288;2023-08-06T12:10:12;94828.78;;;25.58;54.91
50394;BME280;36308;46.312;25.288;2023-08-06T12:12:38;94834.66;;;25.53;55.44
50394;BME280;36308;46.312;25.288;2023-08-06T12:15:04;94826.00;;;25.51;55.34
50394;BME280;36308;46.312;25.288;2023-08-06T12:17:32;94808.25;;;25.48;56.17
50394;BME280;36308;46.312;25.288;2023-08-06T12:19:57;94795.31;;;25.49;56.52
50394;BME280;36308;46.312;25.288;2023-08-06T12:22:23;94792.97;;;25.51;56.86
50394;BME280;36308;46.312;25.288;2023-08-06T12:24:49;94796.53;;;25.55;57.11
50394;BME280;36308;46.312;25.288;2023-08-06T12:27:15;94815.81;;;25.62;57.68
50394;BME280;36308;46.312;25.288;2023-08-06T12:29:47;94823.31;;;25.69;58.29
50394;BME280;36308;46.312;25.288;2023-08-06T12:32:14;94810.00;;;25.74;58.05
50394;BME280;36308;46.312;25.288;2023-08-06T12:34:40;94809.25;;;25.77;58.35
50394;BME280;36308;46.312;25.288;2023-08-06T12:37:07;94821.84;;;25.86;57.96
50394;BME280;36308;46.312;25.288;2023-08-06T12:39:33;94827.75;;;25.88;57.51
50394;BME280;36308;46.312;25.288;2023-08-06T12:42:03;94829.41;;;25.92;56.71
50394;BME280;36308;46.312;25.288;2023-08-06T12:44:29;94837.31;;;26.05;56.54
50394;BME280;36308;46.312;25.288;2023-08-06T12:46:55;94826.75;;;26.17;56.01
50394;BME280;36308;46.312;25.288;2023-08-06T12:49:20;94827.22;;;26.41;56.13
50394;BME280;36308;46.312;25.288;2023-08-06T12:51:47;94831.63;;;26.60;55.24
50394;BME280;36308;46.312;25.288;2023-08-06T12:54:13;94831.66;;;26.78;54.28
50394;BME280;36308;46.312;25.288;2023-08-06T12:56:38;94836.81;;;26.94;53.70